Time;durP1;ratioP1;P1;durP2;ratioP2;P2;SDS_P1;SDS_P2;PMS_P1;PMS_P2;Temp;Humidity;BMP_temperature;BMP_pressure;BME280_temperature;BME280_humidity;BME280_pressure;Samples;Min_cycle;Max_cycle;Signal;HPM_P1;HPM_P2
2022/10/31 00:01:32;;;;;;;;;;;11.30;99.90;;;;;;5070121;28;19924;-75
2022/10/31 00:03:57;;;;;;;;;;;11.30;99.90;;;;;;5070042;28;19985;-75
2022/10/31 00:06:23;;;;;;;;;;;11.20;99.90;;;;;;5051710;28;19965;-75
2022/10/31 00:08:53;;;;;;;;;;;11.30;99.90;;;;;;5069721;28;20527;-75
2022/10/31 00:11:18;;;;;;;;;;;11.20;99.90;;;;;;5051639;28;19930;-75
2022/10/31 00:13:44;;;;;;;;;;;11.20;99.90;;;;;;5069663;28;19939;-75
2022/10/31 00:16:14;;;;;;;;;;;11.20;99.90;;;;;;5052134;28;19966;-76
2022/10/31 00:18:40;;;;;;;;;;;11.20;99.90;;;;;;5073203;28;19912;-75
2022/10/31 00:21:05;;;;;;;;;;;11.20;99.90;;;;;;5055767;28;19912;-75
2022/10/31 00:23:31;;;;;;;;;;;11.30;99.90;;;;;;5055396;28;19904;-75
2022/10/31 00:26:00;;;;;;;;;;;11.20;99.90;;;;;;5055747;28;20439;-75
2022/10/31 00:28:26;;;;;;;;;;;11.30;99.90;;;;;;5073351;28;20736;-76
2022/10/31 00:30:51;;;;;;;;;;;11.20;99.90;;;;;;5055707;28;20011;-76
2022/10/31 00:33:17;;;;;;;;;;;11.30;99.90;;;;;;5054531;28;19913;-75
2022/10/31 00:35:42;;;;;;;;;;;11.20;99.90;;;;;;5055730;28;19946;-75
2022/10/31 00:38:07;;;;;;;;;;;11.30;99.90;;;;;;5073492;28;19909;-75
2022/10/31 00:40:33;;;;;;;;;;;11.30;99.90;;;;;;5072839;28;19905;-76
2022/10/31 00:42:58;;;;;;;;;;;11.30;99.90;;;;;;5055111;28;19912;-75
2022/10/31 00:45:24;;;;;;;;;;;11.30;99.90;;;;;;5055573;28;19930;-76
2022/10/31 00:47:50;;;;;;;;;;;11.20;99.90;;;;;;5055092;28;19968;-75
2022/10/31 00:50:15;;;;;;;;;;;11.30;99.90;;;;;;5055240;28;19904;-74
2022/10/31 00:52:41;;;;;;;;;;;11.20;99.90;;;;;;5072667;28;19948;-75
2022/10/31 00:55:06;;;;;;;;;;;11.20;99.90;;;;;;5055091;28;19954;-75
2022/10/31 00:57:32;;;;;;;;;;;11.20;99.90;;;;;;5054865;28;20659;-75
2022/10/31 00:59:57;;;;;;;;;;;11.20;99.90;;;;;;5072936;28;19912;-75
2022/10/31 01:02:23;;;;;;;;;;;11.20;99.90;;;;;;5054924;28;19987;-75
2022/10/31 01:04:48;;;;;;;;;;;11.10;99.90;;;;;;5054849;28;19916;-75
2022/10/31 01:07:14;;;;;;;;;;;11.20;99.90;;;;;;5072582;28;19904;-75
2022/10/31 01:09:40;;;;;;;;;;;11.20;99.90;;;;;;5054875;28;19912;-75
2022/10/31 01:12:05;;;;;;;;;;;11.20;99.90;;;;;;5054773;28;20300;-75
2022/10/31 01:14:31;;;;;;;;;;;11.20;99.90;;;;;;5054230;28;20676;-75
2022/10/31 01:16:56;;;;;;;;;;;11.10;99.90;;;;;;5072445;28;20484;-75
2022/10/31 01:19:22;;;;;;;;;;;11.20;99.90;;;;;;5072533;28;19904;-75
2022/10/31 01:21:47;;;;;;;;;;;11.10;99.90;;;;;;5072484;28;19923;-76
2022/10/31 01:24:13;;;;;;;;;;;11.10;99.90;;;;;;5054732;28;19999;-75
2022/10/31 01:26:38;;;;;;;;;;;11.10;99.90;;;;;;5054531;28;20478;-75
2022/10/31 01:29:05;;;;;;;;;;;11.00;99.90;;;;;;5053624;28;19904;-75
2022/10/31 01:31:33;;;;;;;;;;;11.00;99.90;;;;;;5054588;28;20311;-76
2022/10/31 01:33:58;;;;;;;;;;;11.00;99.90;;;;;;5054785;28;19904;-75
2022/10/31 01:36:26;;;;;;;;;;;11.00;99.90;;;;;;5072171;28;19923;-76
2022/10/31 01:38:52;;;;;;;;;;;11.00;99.90;;;;;;5072245;28;19908;-76
2022/10/31 01:41:22;;;;;;;;;;;11.10;99.90;;;;;;5072561;28;19931;-75
2022/10/31 01:43:50;;;;;;;;;;;11.00;99.90;;;;;;5054715;28;19908;-76
2022/10/31 01:46:17;;;;;;;;;;;11.10;99.90;;;;;;5072492;28;19905;-76
2022/10/31 01:48:43;;;;;;;;;;;11.00;99.90;;;;;;5072331;28;19908;-75
2022/10/31 01:51:11;;;;;;;;;;;11.00;99.90;;;;;;5072183;28;19927;-75
2022/10/31 01:53:36;;;;;;;;;;;11.00;99.90;;;;;;5072858;28;20502;-75
2022/10/31 01:56:02;;;;;;;;;;;11.10;99.90;;;;;;5072512;28;20226;-75
2022/10/31 01:58:29;;;;;;;;;;;11.10;99.90;;;;;;5054765;28;19908;-75
2022/10/31 02:00:57;;;;;;;;;;;11.20;99.90;;;;;;5072274;28;20397;-75
2022/10/31 02:03:23;;;;;;;;;;;11.00;99.90;;;;;;5054446;28;19953;-75
2022/10/31 02:05:49;;;;;;;;;;;11.00;99.90;;;;;;5054658;28;20392;-75
2022/10/31 02:08:15;;;;;;;;;;;11.00;99.90;;;;;;5072530;28;19922;-75
2022/10/31 02:10:42;;;;;;;;;;;11.00;99.90;;;;;;5072687;28;19991;-75
2022/10/31 02:13:07;;;;;;;;;;;11.00;99.90;;;;;;5072576;28;19938;-75
2022/10/31 02:15:34;;;;;;;;;;;11.00;99.90;;;;;;5054574;28;20336;-75
2022/10/31 02:18:00;;;;;;;;;;;11.00;99.90;;;;;;5073104;28;19915;-75
2022/10/31 02:20:29;;;;;;;;;;;11.10;99.90;;;;;;5073306;28;19909;-75
2022/10/31 02:23:04;;;;;;;;;;;11.00;99.90;;;;;;5053017;28;19934;-75
2022/10/31 02:25:48;;;;;;;;;;;11.00;99.90;;;;;;5052871;28;19908;-75
2022/10/31 02:28:25;;;;;;;;;;;11.00;99.90;;;;;;5070499;28;20415;-75
2022/10/31 02:31:08;;;;;;;;;;;11.00;99.90;;;;;;5070417;28;19909;-75
2022/10/31 02:33:34;;;;;;;;;;;11.00;99.90;;;;;;5070563;28;19947;-75
2022/10/31 02:35:59;;;;;;;;;;;11.10;99.90;;;;;;5070581;28;20403;-76
2022/10/31 02:38:28;;;;;;;;;;;11.10;99.90;;;;;;5052458;28;19904;-75
2022/10/31 02:41:14;;;;;;;;;;;11.10;99.90;;;;;;5070286;28;19912;-75
2022/10/31 02:43:43;;;;;;;;;;;11.10;99.90;;;;;;5070003;28;20395;-75
2022/10/31 02:46:35;;;;;;;;;;;11.10;99.90;;;;;;5070228;28;19947;-76
2022/10/31 02:49:05;;;;;;;;;;;11.10;99.90;;;;;;5049719;28;19961;-77
2022/10/31 02:51:31;;;;;;;;;;;11.00;99.90;;;;;;5069979;28;19991;-75
2022/10/31 02:53:56;;;;;;;;;;;11.00;99.90;;;;;;5070013;28;20016;-75
2022/10/31 02:56:22;;;;;;;;;;;10.90;99.90;;;;;;5052147;28;19904;-75
2022/10/31 02:58:47;;;;;;;;;;;10.90;99.90;;;;;;5052034;28;20372;-76
2022/10/31 03:01:19;;;;;;;;;;;10.90;99.90;;;;;;5051583;28;19959;-75
2022/10/31 03:03:56;;;;;;;;;;;10.90;99.90;;;;;;5052037;28;19912;-75
2022/10/31 03:06:30;;;;;;;;;;;10.80;99.90;;;;;;5070063;28;19940;-75
2022/10/31 03:08:55;;;;;;;;;;;10.70;99.90;;;;;;5051801;28;19999;-76
2022/10/31 03:11:23;;;;;;;;;;;10.80;99.90;;;;;;5070010;28;20329;-75
2022/10/31 03:13:48;;;;;;;;;;;10.80;99.90;;;;;;5052026;28;19928;-75
2022/10/31 03:16:13;;;;;;;;;;;10.90;99.90;;;;;;5051916;28;19946;-75
2022/10/31 03:18:40;;;;;;;;;;;10.80;99.90;;;;;;5069994;28;19974;-75
2022/10/31 03:21:05;;;;;;;;;;;10.90;99.90;;;;;;5052893;28;19916;-75
2022/10/31 03:23:33;;;;;;;;;;;10.80;99.90;;;;;;5052025;28;20262;-75
2022/10/31 03:26:00;;;;;;;;;;;10.80;99.90;;;;;;5052088;28;19975;-75
2022/10/31 03:28:30;;;;;;;;;;;10.80;99.90;;;;;;5052068;28;19977;-75
2022/10/31 03:30:56;;;;;;;;;;;10.90;99.90;;;;;;5065043;28;19909;-75
2022/10/31 03:33:25;;;;;;;;;;;10.90;99.90;;;;;;5069811;28;20380;-75
2022/10/31 03:35:52;;;;;;;;;;;10.90;99.90;;;;;;5069548;28;19908;-74
2022/10/31 03:38:19;;;;;;;;;;;10.80;99.90;;;;;;5069715;28;19919;-74
2022/10/31 03:40:45;;;;;;;;;;;10.90;99.90;;;;;;5069373;28;19982;-74
2022/10/31 03:43:14;;;;;;;;;;;10.80;99.90;;;;;;5069818;28;19931;-75
2022/10/31 03:45:42;;;;;;;;;;;10.80;99.90;;;;;;5070017;28;20002;-75
2022/10/31 03:48:07;;;;;;;;;;;10.80;99.90;;;;;;5069643;28;19908;-74
2022/10/31 03:50:56;;;;;;;;;;;10.80;99.90;;;;;;5069227;28;19966;-75
2022/10/31 03:53:33;;;;;;;;;;;10.80;99.90;;;;;;5073178;28;19947;-74
2022/10/31 03:56:01;;;;;;;;;;;10.80;99.90;;;;;;5073697;28;19912;-75
2022/10/31 03:58:37;;;;;;;;;;;10.80;99.90;;;;;;5073832;28;19909;-75
2022/10/31 04:01:03;;;;;;;;;;;10.80;99.90;;;;;;5073907;28;19912;-75
2022/10/31 04:03:31;;;;;;;;;;;10.80;99.90;;;;;;5055471;28;19912;-75
2022/10/31 04:05:59;;;;;;;;;;;10.80;99.90;;;;;;5073409;28;19912;-75
2022/10/31 04:08:26;;;;;;;;;;;10.80;99.90;;;;;;5073709;28;19908;-75
2022/10/31 04:10:52;;;;;;;;;;;10.80;99.90;;;;;;5054638;28;19944;-76
2022/10/31 04:13:20;;;;;;;;;;;10.80;99.90;;;;;;5073160;28;19920;-75
2022/10/31 04:15:46;;;;;;;;;;;10.80;99.90;;;;;;5055365;28;20269;-75
2022/10/31 04:18:12;;;;;;;;;;;10.70;99.90;;;;;;5073328;28;19915;-75
2022/10/31 04:20:39;;;;;;;;;;;10.80;99.90;;;;;;5073212;28;19908;-76
2022/10/31 04:23:05;;;;;;;;;;;10.70;99.90;;;;;;5071886;28;19979;-75
2022/10/31 04:25:30;;;;;;;;;;;10.80;99.90;;;;;;5055019;28;19935;-75
2022/10/31 04:27:56;;;;;;;;;;;10.70;99.90;;;;;;5073038;28;20424;-75
2022/10/31 04:30:22;;;;;;;;;;;10.70;99.90;;;;;;5054971;28;19908;-75
2022/10/31 04:32:47;;;;;;;;;;;10.80;99.90;;;;;;5072053;28;19910;-75
2022/10/31 04:35:13;;;;;;;;;;;10.70;99.90;;;;;;5073229;28;19912;-74
2022/10/31 04:37:38;;;;;;;;;;;10.70;99.90;;;;;;5054499;28;19904;-75
2022/10/31 04:40:04;;;;;;;;;;;10.70;99.90;;;;;;5055339;28;19919;-77
2022/10/31 04:42:30;;;;;;;;;;;10.70;99.90;;;;;;5054688;28;19912;-75
2022/10/31 04:44:55;;;;;;;;;;;10.70;99.90;;;;;;5054809;28;19908;-75
2022/10/31 04:47:21;;;;;;;;;;;10.70;99.90;;;;;;5072345;28;20415;-75
2022/10/31 04:49:46;;;;;;;;;;;10.70;99.90;;;;;;5053672;28;19912;-75
2022/10/31 04:52:12;;;;;;;;;;;10.60;99.90;;;;;;5072289;28;19912;-75
2022/10/31 04:54:37;;;;;;;;;;;10.60;99.90;;;;;;5071995;28;20284;-75
2022/10/31 04:57:03;;;;;;;;;;;10.60;99.90;;;;;;5054248;28;19908;-75
2022/10/31 04:59:28;;;;;;;;;;;10.60;99.90;;;;;;5053891;28;19954;-75
2022/10/31 05:01:54;;;;;;;;;;;10.50;99.90;;;;;;5072284;28;19912;-75
2022/10/31 05:04:19;;;;;;;;;;;10.50;99.90;;;;;;5053322;28;19916;-75
2022/10/31 05:06:45;;;;;;;;;;;10.50;99.90;;;;;;5051859;28;19905;-75
2022/10/31 05:09:10;;;;;;;;;;;10.50;99.90;;;;;;5053461;28;20393;-75
2022/10/31 05:11:36;;;;;;;;;;;10.50;99.90;;;;;;5072023;28;20376;-75
2022/10/31 05:14:01;;;;;;;;;;;10.50;99.90;;;;;;5053198;28;19916;-75
2022/10/31 05:16:27;;;;;;;;;;;10.40;99.90;;;;;;5071944;28;19987;-75
2022/10/31 05:18:53;;;;;;;;;;;10.50;99.90;;;;;;5054127;28;19915;-74
2022/10/31 05:21:18;;;;;;;;;;;10.50;99.90;;;;;;5053148;28;20011;-74
2022/10/31 05:23:44;;;;;;;;;;;10.60;99.90;;;;;;5071149;28;19908;-75
2022/10/31 05:26:09;;;;;;;;;;;10.50;99.90;;;;;;5071542;28;19915;-75
2022/10/31 05:28:35;;;;;;;;;;;10.50;99.90;;;;;;5072086;28;20432;-75
2022/10/31 05:31:00;;;;;;;;;;;10.50;99.90;;;;;;5070945;28;20423;-74
2022/10/31 05:33:26;;;;;;;;;;;10.50;99.90;;;;;;5052733;28;20404;-75
2022/10/31 05:35:51;;;;;;;;;;;10.60;99.90;;;;;;5053611;28;19948;-74
2022/10/31 05:38:17;;;;;;;;;;;10.60;99.90;;;;;;5070761;28;20054;-75
2022/10/31 05:40:42;;;;;;;;;;;10.50;99.90;;;;;;5071014;28;19948;-75
2022/10/31 05:43:08;;;;;;;;;;;10.50;99.90;;;;;;5052717;28;19924;-74
2022/10/31 05:45:33;;;;;;;;;;;10.50;99.90;;;;;;5053385;28;19995;-75
2022/10/31 05:48:00;;;;;;;;;;;10.50;99.90;;;;;;5070693;28;19915;-75
2022/10/31 05:50:26;;;;;;;;;;;10.60;99.90;;;;;;5071271;28;19908;-76
2022/10/31 05:52:59;;;;;;;;;;;10.50;99.90;;;;;;5052910;28;19912;-75
2022/10/31 05:55:25;;;;;;;;;;;10.60;99.90;;;;;;5052569;28;19914;-75
2022/10/31 05:57:51;;;;;;;;;;;10.60;99.90;;;;;;5070599;28;19912;-75
2022/10/31 06:00:17;;;;;;;;;;;10.60;99.90;;;;;;5071247;28;19935;-76
2022/10/31 06:02:42;;;;;;;;;;;10.60;99.90;;;;;;5053205;28;19924;-75
2022/10/31 06:05:08;;;;;;;;;;;10.60;99.90;;;;;;5071023;28;20375;-75
2022/10/31 06:07:34;;;;;;;;;;;10.70;99.90;;;;;;5053030;28;19957;-77
2022/10/31 06:10:00;;;;;;;;;;;10.70;99.90;;;;;;5052410;28;19920;-77
2022/10/31 06:12:26;;;;;;;;;;;10.70;99.90;;;;;;5069421;28;19916;-76
2022/10/31 06:14:51;;;;;;;;;;;10.80;99.90;;;;;;5052045;28;19920;-76
2022/10/31 06:17:17;;;;;;;;;;;10.80;99.90;;;;;;5051950;28;19916;-77
2022/10/31 06:19:42;;;;;;;;;;;10.80;99.90;;;;;;5052212;28;20066;-77
2022/10/31 06:22:08;;;;;;;;;;;10.90;99.90;;;;;;5069815;28;19928;-75
2022/10/31 06:24:33;;;;;;;;;;;10.90;99.90;;;;;;5044395;28;19916;-76
2022/10/31 06:26:59;;;;;;;;;;;10.90;99.90;;;;;;5032594;28;19913;-77
2022/10/31 06:29:24;;;;;;;;;;;10.90;99.90;;;;;;5052347;28;20392;-77
2022/10/31 06:31:53;;;;;;;;;;;10.90;99.90;;;;;;5051969;28;20379;-77
2022/10/31 06:34:19;;;;;;;;;;;10.90;99.90;;;;;;5050981;28;19912;-77
2022/10/31 06:36:45;;;;;;;;;;;10.90;99.90;;;;;;5069526;28;19913;-77
2022/10/31 06:39:11;;;;;;;;;;;10.90;99.90;;;;;;5052101;28;19919;-77
2022/10/31 06:41:36;;;;;;;;;;;11.00;99.90;;;;;;5050158;28;19920;-77
2022/10/31 06:44:02;;;;;;;;;;;11.00;99.90;;;;;;5070229;28;20303;-78
2022/10/31 06:46:27;;;;;;;;;;;11.00;99.90;;;;;;5052147;28;19912;-78
2022/10/31 06:48:53;;;;;;;;;;;11.00;99.90;;;;;;5051523;28;19912;-77
2022/10/31 06:51:18;;;;;;;;;;;11.10;99.90;;;;;;5053021;28;19995;-78
2022/10/31 06:53:44;;;;;;;;;;;11.10;99.90;;;;;;5052287;28;19908;-75
2022/10/31 06:56:09;;;;;;;;;;;11.10;99.90;;;;;;5052525;28;19908;-77
2022/10/31 06:58:35;;;;;;;;;;;11.10;99.90;;;;;;5051435;28;19915;-77
2022/10/31 07:01:00;;;;;;;;;;;11.10;99.90;;;;;;5061342;28;20011;-77
2022/10/31 07:03:26;;;;;;;;;;;11.10;99.90;;;;;;5053221;28;19947;-74
2022/10/31 07:05:52;;;;;;;;;;;11.20;99.90;;;;;;5051838;28;19909;-75
2022/10/31 07:10:21;;;;;;;39.93;19.23;;;11.30;99.90;;;;;;5086436;27;20820;-76
2022/10/31 07:12:47;;;;;;;27.02;15.68;;;11.30;99.90;;;;;;5086757;28;20059;-75
2022/10/31 07:15:13;;;;;;;;;;;11.30;99.90;;;;;;5085870;28;20036;-75
2022/10/31 07:17:38;;;;;;;28.25;16.23;;;11.40;99.90;;;;;;5084405;28;19970;-75
2022/10/31 07:20:04;;;;;;;;;;;11.40;99.90;;;;;;5085545;28;20077;-76
2022/10/31 07:22:34;;;;;;;40.35;20.40;;;11.40;99.90;;;;;;5085112;28;19904;-76
2022/10/31 07:25:00;;;;;;;30.30;19.25;;;11.50;99.90;;;;;;5086241;28;20028;-76
2022/10/31 07:27:26;;;;;;;;;;;11.50;99.90;;;;;;5084759;28;20565;-76
2022/10/31 07:29:51;;;;;;;29.73;18.45;;;11.60;99.90;;;;;;5084398;28;20144;-76
2022/10/31 07:32:17;;;;;;;;;;;11.70;99.90;;;;;;5087034;28;20032;-76
2022/10/31 07:34:42;;;;;;;29.35;15.68;;;11.70;99.90;;;;;;5084758;28;19912;-76
2022/10/31 07:37:08;;;;;;;;;;;11.70;99.90;;;;;;5085219;28;20024;-76
2022/10/31 07:39:33;;;;;;;40.53;17.35;;;11.80;99.90;;;;;;5084764;28;20428;-76
2022/10/31 07:41:59;;;;;;;;;;;11.80;99.90;;;;;;5086413;28;20028;-77
2022/10/31 07:44:24;;;;;;;31.38;16.70;;;11.80;99.90;;;;;;5085231;28;20292;-75
2022/10/31 07:46:50;;;;;;;;;;;11.80;99.90;;;;;;5086230;28;20020;-76
2022/10/31 07:49:16;;;;;;;30.77;16.75;;;11.80;99.90;;;;;;5084364;28;20398;-76
2022/10/31 07:51:41;;;;;;;36.85;16.90;;;11.80;99.90;;;;;;5084303;28;20060;-76
2022/10/31 07:54:07;;;;;;;;;;;11.70;99.90;;;;;;5086300;28;20024;-75
2022/10/31 07:56:32;;;;;;;31.58;17.35;;;11.70;99.90;;;;;;5084262;28;19962;-75
2022/10/31 07:58:58;;;;;;;;;;;11.70;99.90;;;;;;5084450;28;20094;-76
2022/10/31 08:01:24;;;;;;;31.73;17.75;;;11.80;99.90;;;;;;5084461;28;19919;-77
2022/10/31 08:03:49;;;;;;;;;;;11.80;99.90;;;;;;5084894;28;20552;-77
2022/10/31 08:06:15;;;;;;;32.97;16.90;;;11.80;99.90;;;;;;5083995;28;19915;-76
2022/10/31 08:08:40;;;;;;;;;;;11.70;99.90;;;;;;5083744;28;20523;-76
2022/10/31 08:11:06;;;;;;;33.67;17.77;;;11.80;99.90;;;;;;5085466;28;19908;-77
2022/10/31 08:13:31;;;;;;;;;;;11.70;99.90;;;;;;5084772;28;20448;-76
2022/10/31 08:16:03;;;;;;;32.70;15.32;;;11.80;99.90;;;;;;5084121;28;20327;-75
2022/10/31 08:18:29;;;;;;;30.55;16.65;;;11.80;99.90;;;;;;5085216;28;20366;-76
2022/10/31 08:20:54;;;;;;;;;;;11.90;99.90;;;;;;5061728;28;20036;-76
2022/10/31 08:23:20;;;;;;;29.58;16.33;;;11.90;99.90;;;;;;5052090;28;20317;-77
2022/10/31 08:25:49;;;;;;;;;;;11.80;99.90;;;;;;5050985;28;20021;-76
2022/10/31 08:28:15;;;;;;;31.40;17.52;;;11.80;99.90;;;;;;5067251;28;19919;-78
2022/10/31 08:30:40;;;;;;;;;;;11.90;99.90;;;;;;5052143;28;20037;-77
2022/10/31 08:33:12;;;;;;;29.65;16.55;;;11.90;99.90;;;;;;5067550;28;19936;-77
2022/10/31 08:35:37;;;;;;;30.33;16.55;;;11.90;99.90;;;;;;5054141;28;20037;-77
2022/10/31 08:38:03;;;;;;;;;;;11.90;99.90;;;;;;5067772;28;20039;-77
2022/10/31 08:40:31;;;;;;;36.17;18.27;;;12.00;99.90;;;;;;5070307;28;20292;-77
2022/10/31 08:43:01;;;;;;;35.05;16.88;;;12.00;99.90;;;;;;5071596;28;20028;-76
2022/10/31 08:45:28;;;;;;;34.03;16.23;;;12.00;99.90;;;;;;5071748;28;20025;-77
2022/10/31 08:48:05;;;;;;;30.30;15.13;;;12.10;99.90;;;;;;5070399;28;20534;-78
2022/10/31 08:50:32;;;;;;;40.97;20.80;;;12.10;99.90;;;;;;5071720;28;20135;-77
2022/10/31 08:53:06;;;;;;;39.85;19.42;;;12.20;99.90;;;;;;5069702;28;20024;-76
2022/10/31 08:55:35;;;;;;;40.00;19.73;;;12.20;99.90;;;;;;5069535;28;20732;-78
2022/10/31 08:58:00;;;;;;;42.13;18.80;;;12.30;99.90;;;;;;5063931;28;20024;-78
2022/10/31 09:00:26;;;;;;;;;;;12.30;99.90;;;;;;5060274;28;20123;-77
2022/10/31 09:03:05;;;;;;;42.42;19.42;;;12.30;99.90;;;;;;5059347;28;19974;-77
2022/10/31 09:05:32;;;;;;;47.10;21.20;;;12.30;99.90;;;;;;5058273;28;20025;-76
2022/10/31 09:07:59;;;;;;;41.33;20.52;;;12.40;99.90;;;;;;5058220;28;20040;-78
2022/10/31 09:10:26;;;;;;;47.08;23.58;;;12.40;99.90;;;;;;5064687;28;20089;-78
2022/10/31 09:12:59;;;;;;;44.33;22.58;;;12.40;99.90;;;;;;5060630;28;20129;-77
2022/10/31 09:15:26;;;;;;;38.90;20.83;;;12.50;99.90;;;;;;5058406;28;20017;-78
2022/10/31 09:17:53;;;;;;;43.75;22.38;;;12.50;99.90;;;;;;5059702;28;20135;-77
2022/10/31 09:20:19;;;;;;;39.85;20.38;;;12.50;99.90;;;;;;5061003;28;20021;-76
2022/10/31 09:22:45;;;;;;;;;;;12.60;99.90;;;;;;5059641;28;20025;-76
2022/10/31 09:25:10;;;;;;;54.00;22.88;;;12.50;99.90;;;;;;5061332;28;19920;-77
2022/10/31 09:27:36;;;;;;;42.92;21.45;;;12.60;99.90;;;;;;5058413;28;20021;-76
2022/10/31 09:30:02;;;;;;;40.97;21.63;;;12.60;99.90;;;;;;5061310;28;20047;-79
2022/10/31 09:32:28;;;;;;;44.72;23.38;;;12.60;99.90;;;;;;5049183;28;20112;-78
2022/10/31 09:34:53;;;;;;;;;;;12.60;99.90;;;;;;5049570;28;20215;-78
2022/10/31 09:37:19;;;;;;;35.22;18.17;;;12.60;99.90;;;;;;5055931;28;19909;-78
2022/10/31 09:39:44;;;;;;;42.40;18.83;;;12.70;99.90;;;;;;5067534;28;20110;-78
2022/10/31 09:42:29;;;;;;;;;;;12.70;99.90;;;;;;5063573;28;20589;-77
2022/10/31 09:45:19;;;;;;;47.42;21.83;;;12.60;99.90;;;;;;5048792;28;19908;-75
2022/10/31 09:47:55;;;;;;;46.38;22.95;;;12.60;99.90;;;;;;5048929;28;20032;-76
2022/10/31 09:50:31;;;;;;;36.42;19.38;;;12.60;99.90;;;;;;5051659;28;20052;-77
2022/10/31 09:53:17;;;;;;;41.42;21.17;;;12.70;99.90;;;;;;5059340;28;20091;-77
2022/10/31 09:55:46;;;;;;;36.97;17.83;;;12.70;99.90;;;;;;5060171;28;20033;-78
2022/10/31 09:58:33;;;;;;;32.88;16.20;;;12.70;99.90;;;;;;5062667;28;20119;-77
2022/10/31 10:01:02;;;;;;;37.78;19.52;;;12.80;99.90;;;;;;5069549;28;20121;-78
2022/10/31 10:03:43;;;;;;;34.53;18.45;;;12.80;99.90;;;;;;5058293;28;20036;-77
2022/10/31 10:06:21;;;;;;;32.13;18.75;;;12.90;99.90;;;;;;5069713;28;20024;-78
2022/10/31 10:08:46;;;;;;;42.97;21.02;;;13.00;99.90;;;;;;5069557;28;20072;-77
2022/10/31 10:11:21;;;;;;;;;;;13.00;99.90;;;;;;5069576;28;20125;-77
2022/10/31 10:13:58;;;;;;;37.42;19.88;;;12.90;99.90;;;;;;5068451;28;19908;-77
2022/10/31 10:16:42;;;;;;;43.95;21.52;;;12.90;99.90;;;;;;5069195;28;20063;-76
2022/10/31 10:19:40;;;;;;;37.78;18.98;;;13.00;99.90;;;;;;5068330;28;20075;-78
2022/10/31 10:22:31;;;;;;;46.83;23.35;;;13.00;99.90;;;;;;5068369;28;20032;-77
2022/10/31 10:25:15;;;;;;;45.17;22.40;;;12.90;99.90;;;;;;5069538;28;20016;-77
2022/10/31 10:27:55;;;;;;;43.58;22.50;;;12.90;99.90;;;;;;5068384;28;20032;-74
2022/10/31 10:30:39;;;;;;;40.30;21.85;;;12.90;99.90;;;;;;5068136;28;20037;-75
2022/10/31 10:33:19;;;;;;;41.05;20.30;;;12.80;99.90;;;;;;5069409;28;20029;-77
2022/10/31 10:35:55;;;;;;;42.67;21.55;;;12.90;99.90;;;;;;5069196;28;20032;-78
2022/10/31 10:38:34;;;;;;;37.38;20.45;;;12.90;99.90;;;;;;5069457;28;20032;-78
2022/10/31 10:41:12;;;;;;;43.38;21.58;;;12.80;99.90;;;;;;5068038;28;20043;-77
2022/10/31 10:43:38;;;;;;;46.70;22.42;;;12.80;99.90;;;;;;5067812;28;20515;-77
2022/10/31 10:49:16;;;;;;;37.45;18.60;;;12.70;99.90;;;;;;5069158;28;20416;-77
2022/10/31 10:51:47;;;;;;;47.85;23.42;;;12.80;99.90;;;;;;5068182;28;20041;-78
2022/10/31 10:54:40;;;;;;;46.92;21.08;;;12.70;99.90;;;;;;5067995;28;20107;-77
2022/10/31 10:57:12;;;;;;;46.42;22.30;;;12.80;99.90;;;;;;5067439;28;20028;-79
2022/10/31 10:59:38;;;;;;;39.17;21.38;;;12.90;99.90;;;;;;5062348;28;20077;-77
2022/10/31 11:02:03;;;;;;;;;;;12.90;99.90;;;;;;5055834;28;20124;-77
2022/10/31 11:04:35;;;;;;;46.50;23.23;;;12.90;99.90;;;;;;5064662;28;19924;-78
2022/10/31 11:07:10;;;;;;;47.97;23.55;;;12.90;99.90;;;;;;5062527;28;20041;-74
2022/10/31 11:09:37;;;;;;;51.90;24.03;;;12.90;99.90;;;;;;5063461;28;20057;-77
2022/10/31 11:12:19;;;;;;;45.30;22.60;;;12.90;99.90;;;;;;5063341;28;20025;-77
2022/10/31 11:14:52;;;;;;;49.75;24.25;;;12.90;99.90;;;;;;5052651;28;20032;-77
2022/10/31 11:17:32;;;;;;;56.17;23.38;;;13.00;99.90;;;;;;5068958;28;20079;-77
2022/10/31 11:20:04;;;;;;;46.30;21.75;;;12.80;99.90;;;;;;5053684;28;20033;-78
2022/10/31 11:22:30;;;;;;;41.60;21.88;;;12.80;99.90;;;;;;5047595;28;20517;-77
2022/10/31 11:24:56;;;;;;;;;;;12.80;99.90;;;;;;5048393;28;20112;-78
2022/10/31 11:27:24;;;;;;;53.97;23.67;;;12.80;99.90;;;;;;5048648;28;20680;-79
2022/10/31 11:29:50;;;;;;;48.55;21.42;;;12.80;99.90;;;;;;5047382;28;20044;-77
2022/10/31 11:32:21;;;;;;;46.65;23.50;;;12.80;99.90;;;;;;5048963;28;20029;-78
2022/10/31 11:34:51;;;;;;;52.05;23.58;;;12.80;99.90;;;;;;5048880;28;20039;-77
2022/10/31 11:37:24;;;;;;;46.38;22.67;;;12.80;99.90;;;;;;5047270;28;20503;-78
2022/10/31 11:39:55;;;;;;;54.55;25.70;;;12.90;99.90;;;;;;5048895;28;20479;-76
2022/10/31 11:42:24;;;;;;;47.53;22.48;;;12.90;99.90;;;;;;5047606;28;20107;-78
2022/10/31 11:44:51;;;;;;;67.55;35.67;;;12.90;99.90;;;;;;5047535;28;20029;-77
2022/10/31 11:47:21;;;;;;;63.08;29.48;;;12.90;99.90;;;;;;5048612;28;20068;-78
2022/10/31 11:49:51;;;;;;;56.58;28.42;;;12.90;99.90;;;;;;5047030;28;20507;-77
2022/10/31 11:52:38;;;;;;;52.78;27.00;;;12.90;99.90;;;;;;5048828;28;20032;-77
2022/10/31 11:55:10;;;;;;;52.17;25.17;;;12.90;99.90;;;;;;5047685;28;20060;-77
2022/10/31 11:57:46;;;;;;;52.30;25.42;;;12.90;99.90;;;;;;5052447;28;20025;-78
2022/10/31 12:00:32;;;;;;;;;;;12.90;99.90;;;;;;5051743;28;20033;-77
2022/10/31 12:03:29;;;;;;;53.28;23.60;;;12.80;99.90;;;;;;5051008;28;19904;-78
2022/10/31 12:05:58;;;;;;;52.17;24.33;;;12.70;99.90;;;;;;5050217;28;20029;-77
2022/10/31 12:08:30;;;;;;;47.92;23.17;;;12.70;99.90;;;;;;5052072;28;20053;-77
2022/10/31 12:10:55;;;;;;;57.83;23.65;;;12.70;99.90;;;;;;5052209;28;20265;-77
2022/10/31 12:13:31;;;;;;;;;;;12.70;99.90;;;;;;5051549;28;20464;-78
2022/10/31 12:16:36;;;;;;;61.08;27.38;;;12.70;99.90;;;;;;5050715;28;19909;-78
2022/10/31 12:19:08;;;;;;;56.17;24.98;;;12.70;99.90;;;;;;5049815;28;20043;-78
2022/10/31 12:21:37;;;;;;;52.35;24.65;;;12.70;99.90;;;;;;5052137;28;20025;-77
2022/10/31 12:24:12;;;;;;;52.83;26.70;;;12.70;99.90;;;;;;5050883;28;20135;-77
2022/10/31 12:26:49;;;;;;;47.47;24.50;;;12.70;99.90;;;;;;5051780;28;20033;-78
2022/10/31 12:29:31;;;;;;;52.20;24.73;;;12.70;99.90;;;;;;5050554;28;20531;-77
2022/10/31 12:32:03;;;;;;;60.58;26.52;;;12.70;99.90;;;;;;5050484;28;20017;-78
2022/10/31 12:34:44;;;;;;;56.55;28.15;;;12.70;99.90;;;;;;5050762;28;20593;-78
2022/10/31 12:37:48;;;;;;;57.83;28.77;;;12.70;99.90;;;;;;5051592;28;20033;-78
2022/10/31 12:40:35;;;;;;;54.83;27.17;;;12.70;99.90;;;;;;5051699;28;20036;-78
2022/10/31 12:43:19;;;;;;;61.85;30.58;;;12.70;99.90;;;;;;5050260;28;20434;-77
2022/10/31 12:45:45;;;;;;;62.13;31.88;;;12.70;99.90;;;;;;5050552;28;20033;-78
2022/10/31 12:48:18;;;;;;;;;;;12.70;99.90;;;;;;5050712;28;20404;-78
2022/10/31 12:51:15;;;;;;;54.90;29.23;;;12.70;99.90;;;;;;5051458;28;19913;-77
2022/10/31 12:54:16;;;;;;;59.73;31.07;;;12.70;99.90;;;;;;5050350;28;20070;-78
2022/10/31 12:56:44;;;;;;;60.80;32.58;;;12.70;99.90;;;;;;5027851;28;20271;-76
2022/10/31 12:59:35;;;;;;;52.20;29.67;;;12.70;99.90;;;;;;5051488;28;20048;-78
2022/10/31 13:02:18;;;;;;;52.33;28.85;;;12.70;99.90;;;;;;5050182;28;20033;-76
2022/10/31 13:05:22;;;;;;;45.17;25.95;;;12.70;99.90;;;;;;5050910;28;20095;-78
2022/10/31 13:08:00;;;;;;;46.38;27.27;;;12.70;99.90;;;;;;5046864;28;20036;-77
2022/10/31 13:10:49;;;;;;;43.28;26.42;;;12.70;99.90;;;;;;5050751;28;20048;-77
2022/10/31 13:13:32;;;;;;;47.75;30.48;;;12.60;99.90;;;;;;5051226;28;20091;-77
2022/10/31 13:16:12;;;;;;;52.72;30.48;;;12.60;99.90;;;;;;5050226;28;20036;-79
2022/10/31 13:18:54;;;;;;;51.00;30.15;;;12.50;99.90;;;;;;5050800;28;20382;-77
2022/10/31 13:21:49;;;;;;;54.97;29.90;;;12.50;99.90;;;;;;5049767;28;20025;-77
2022/10/31 13:24:23;;;;;;;61.50;35.53;;;12.50;99.90;;;;;;5049666;28;20505;-77
2022/10/31 13:26:54;;;;;;;64.78;35.30;;;12.50;99.90;;;;;;5049261;28;20075;-77
2022/10/31 13:29:27;;;;;;;67.47;34.95;;;12.50;99.90;;;;;;5050639;28;20116;-78
2022/10/31 13:31:53;;;;;;;63.50;33.70;;;12.60;99.90;;;;;;5049253;28;20110;-77
2022/10/31 13:34:39;;;;;;;49.53;29.77;;;12.50;99.90;;;;;;5050743;28;20033;-77
2022/10/31 13:37:25;;;;;;;58.67;33.97;;;12.60;99.90;;;;;;5049200;28;20040;-77
2022/10/31 13:40:21;;;;;;;66.38;36.50;;;12.60;99.90;;;;;;5043050;28;20036;-79
2022/10/31 13:43:06;;;;;;;74.18;39.20;;;12.60;99.90;;;;;;5050368;28;20693;-77
2022/10/31 13:45:32;;;;;;;76.63;39.83;;;12.50;99.90;;;;;;5050546;28;20032;-77
2022/10/31 13:48:20;;;;;;;79.32;42.22;;;12.50;99.90;;;;;;5050435;28;20059;-77
2022/10/31 13:50:57;;;;;;;76.22;42.00;;;12.50;99.90;;;;;;5050215;28;20040;-77